createdAt,value
2023-05-21T00:02:15.492Z,101161.10
2023-05-21T00:04:47.247Z,101159.97
2023-05-21T00:07:18.887Z,101157.81
2023-05-21T00:09:50.004Z,101158.23
2023-05-21T00:12:21.126Z,101159.17
2023-05-21T00:14:52.196Z,101156.85
2023-05-21T00:17:23.599Z,101159.84
2023-05-21T00:19:54.868Z,101155.59
2023-05-21T00:22:26.111Z,101157.02
2023-05-21T00:24:57.136Z,101160.02
2023-05-21T00:27:28.166Z,101156.08
2023-05-21T00:29:59.388Z,101155.98
2023-05-21T00:32:30.477Z,101160.34
2023-05-21T00:35:01.655Z,101159.55
2023-05-21T00:44:10.149Z,101163.17
2023-05-21T00:46:41.381Z,101164.26
2023-05-21T00:49:15.071Z,101165.48
2023-05-21T00:51:46.418Z,101165.86
2023-05-21T00:54:17.611Z,101167.64
2023-05-21T00:56:49.756Z,101168.55
2023-05-21T00:59:21.405Z,101168.61
2023-05-21T01:01:56.398Z,101170.91
2023-05-21T01:04:28.092Z,101171.98
2023-05-21T01:06:59.748Z,101167.89
2023-05-21T01:09:31.594Z,101166.02
2023-05-21T01:12:03.539Z,101167.09
2023-05-21T01:14:35.963Z,101164.71
2023-05-21T01:17:10.576Z,101162.16
2023-05-21T01:19:42.831Z,101160.84
2023-05-21T01:22:16.406Z,101162.95
2023-05-21T01:24:51.299Z,101157.46
2023-05-21T01:27:21.560Z,101156.33
2023-05-21T01:29:52.618Z,101157.74
2023-05-21T01:32:32.640Z,101157.64
2023-05-21T01:35:11.212Z,101159.41
2023-05-21T01:37:49.461Z,101157.06
2023-05-21T01:40:27.186Z,101161.58
2023-05-21T01:42:59.763Z,101160.44
2023-05-21T01:45:33.441Z,101155.31
2023-05-21T01:48:06.499Z,101154.67
2023-05-21T01:50:39.162Z,101151.07
2023-05-21T01:53:10.234Z,101152.83
2023-05-21T01:55:42.232Z,101154.39
2023-05-21T01:58:17.108Z,101155.95
2023-05-21T02:00:51.256Z,101154.95
2023-05-21T02:03:23.281Z,101152.56
2023-05-21T02:05:56.939Z,101150.02
2023-05-21T02:08:30.086Z,101150.93
2023-05-21T02:11:02.055Z,101150.77
2023-05-21T02:13:33.663Z,101151.32
2023-05-21T02:16:04.740Z,101146.72
2023-05-21T02:18:36.615Z,101147.45
2023-05-21T02:21:07.780Z,101144.88
2023-05-21T02:23:40.151Z,101142.84
2023-05-21T02:26:11.180Z,101138.92
2023-05-21T02:28:43.138Z,101138.78
2023-05-21T02:31:14.392Z,101138.29
2023-05-21T02:33:45.554Z,101139.17
2023-05-21T02:36:19.156Z,101137.48
2023-05-21T02:38:50.233Z,101138.70
2023-05-21T02:41:23.411Z,101137.17
2023-05-21T02:43:54.664Z,101141.46
2023-05-21T02:46:25.779Z,101137.85
2023-05-21T02:48:57.176Z,101138.19
2023-05-21T02:51:28.341Z,101136.67
2023-05-21T02:53:59.489Z,101134.95
2023-05-21T02:56:30.822Z,101137.86
2023-05-21T02:59:01.808Z,101142.14
2023-05-21T03:01:32.954Z,101138.00
2023-05-21T03:04:03.992Z,101136.27
2023-05-21T03:06:35.336Z,101137.79
2023-05-21T03:09:07.126Z,101134.31
2023-05-21T03:11:38.392Z,101134.83
2023-05-21T03:14:10.012Z,101135.34
2023-05-21T03:16:42.041Z,101134.29
2023-05-21T03:19:14.599Z,101133.24
2023-05-21T03:21:45.764Z,101128.59
2023-05-21T03:24:16.985Z,101125.65
2023-05-21T03:26:49.721Z,101125.98
2023-05-21T03:29:20.907Z,101122.52
2023-05-21T03:31:54.005Z,101123.52
2023-05-21T03:34:25.858Z,101126.58
2023-05-21T03:36:57.099Z,101128.60
2023-05-21T03:39:28.553Z,101129.41
2023-05-21T03:42:00.191Z,101131.04
2023-05-21T03:44:38.606Z,101125.38
2023-05-21T03:47:28.406Z,101121.88
2023-05-21T03:50:00.982Z,101119.71
2023-05-21T03:52:32.037Z,101120.98
2023-05-21T03:55:03.227Z,101123.42
2023-05-21T03:57:34.578Z,101123.44
2023-05-21T04:00:17.148Z,101122.21
2023-05-21T04:02:48.262Z,101121.46
2023-05-21T04:05:20.547Z,101122.42
2023-05-21T04:07:51.541Z,101125.39
2023-05-21T04:10:23.246Z,101126.90
2023-05-21T04:12:54.331Z,101131.55
2023-05-21T04:15:25.863Z,101130.85
2023-05-21T04:17:57.215Z,101125.35
2023-05-21T04:20:28.488Z,101126.52
2023-05-21T04:22:59.720Z,101126.80
2023-05-21T04:25:35.044Z,101127.98
2023-05-21T04:28:08.230Z,101123.84
2023-05-21T04:30:39.266Z,101122.95
2023-05-21T04:33:10.267Z,101115.27
2023-05-21T04:35:44.676Z,101109.98
2023-05-21T04:38:19.876Z,101108.00
2023-05-21T04:40:52.375Z,101102.69
2023-05-21T04:43:26.798Z,101104.40
2023-05-21T04:45:59.230Z,101105.14
2023-05-21T04:48:30.474Z,101098.48
2023-05-21T04:51:01.990Z,101095.09
2023-05-21T04:53:34.522Z,101095.94
2023-05-21T04:56:05.863Z,101093.31
2023-05-21T04:58:37.326Z,101094.24
2023-05-21T05:01:09.094Z,101101.34
2023-05-21T05:03:40.613Z,101101.37
2023-05-21T05:06:11.844Z,101098.83
2023-05-21T05:08:43.672Z,101099.02
2023-05-21T05:11:15.328Z,101099.40
2023-05-21T05:13:46.616Z,101103.55
2023-05-21T05:16:25.467Z,101100.26
2023-05-21T05:18:57.151Z,101101.70
2023-05-21T05:21:28.393Z,101100.75
2023-05-21T05:23:59.516Z,101100.88
2023-05-21T05:26:32.508Z,101099.30
2023-05-21T05:29:07.332Z,101096.88
2023-05-21T05:31:38.462Z,101098.23
2023-05-21T05:34:09.691Z,101095.67
2023-05-21T05:36:40.759Z,101096.11
2023-05-21T05:39:12.339Z,101090.29
2023-05-21T05:41:43.784Z,101089.98
2023-05-21T05:44:21.699Z,101087.64
2023-05-21T05:46:55.217Z,101086.52
2023-05-21T05:49:26.601Z,101086.59
2023-05-21T05:52:00.506Z,101086.24
2023-05-21T05:54:31.565Z,101091.48
2023-05-21T05:57:02.859Z,101092.55
2023-05-21T06:00:11.406Z,101086.45
2023-05-21T06:02:48.457Z,101083.41
2023-05-21T06:05:19.645Z,101080.84
2023-05-21T06:07:50.710Z,101081.10
2023-05-21T06:10:26.621Z,101083.43
2023-05-21T06:12:57.695Z,101076.28
2023-05-21T06:15:31.962Z,101082.85
2023-05-21T06:18:07.240Z,101075.93
2023-05-21T06:20:42.660Z,101072.23
2023-05-21T06:23:19.259Z,101077.10
2023-05-21T06:25:51.347Z,101080.46
2023-05-21T06:28:22.904Z,101079.55
2023-05-21T06:30:54.077Z,101075.95
2023-05-21T06:33:25.198Z,101074.77
2023-05-21T06:35:56.353Z,101078.05
2023-05-21T06:38:27.834Z,101071.52
2023-05-21T06:40:59.615Z,101070.40
2023-05-21T06:43:49.734Z,101067.87
2023-05-21T06:46:41.302Z,101069.63
2023-05-21T06:49:15.201Z,101066.82
2023-05-21T06:51:45.281Z,101068.11
2023-05-21T06:54:16.899Z,101068.07
2023-05-21T06:57:02.174Z,101064.33
2023-05-21T06:59:35.521Z,101061.02
2023-05-21T07:02:07.841Z,101056.11
2023-05-21T07:04:39.672Z,101054.13
2023-05-21T07:07:10.864Z,101046.44
2023-05-21T07:09:41.891Z,101048.92
2023-05-21T07:12:13.047Z,101045.84
2023-05-21T07:14:44.717Z,101045.24
2023-05-21T07:17:15.712Z,101045.85
2023-05-21T07:19:46.895Z,101047.35
2023-05-21T07:22:18.389Z,101047.80
2023-05-21T07:24:51.886Z,101044.02
2023-05-21T07:27:25.911Z,101044.27
2023-05-21T07:29:58.535Z,101044.88
2023-05-21T07:32:29.721Z,101044.19
2023-05-21T07:35:03.162Z,101046.19
2023-05-21T07:37:35.676Z,101042.36
2023-05-21T07:40:10.212Z,101042.79
2023-05-21T07:42:41.520Z,101039.04
2023-05-21T07:45:26.486Z,101036.90
2023-05-21T07:47:58.187Z,101035.23
2023-05-21T07:50:29.757Z,101033.63
2023-05-21T07:53:16.492Z,101034.67
2023-05-21T07:55:48.856Z,101030.62
2023-05-21T07:58:26.165Z,101027.38
2023-05-21T08:01:01.071Z,101029.75
2023-05-21T08:03:32.656Z,101025.63
2023-05-21T08:06:03.761Z,101023.25
2023-05-21T08:08:34.938Z,101023.67
2023-05-21T08:11:06.090Z,101022.66
2023-05-21T08:13:38.301Z,101024.47
2023-05-21T08:16:10.114Z,101023.70
2023-05-21T08:18:41.556Z,101015.27
2023-05-21T08:21:12.665Z,101015.84
2023-05-21T08:24:08.559Z,101013.02
2023-05-21T08:26:39.903Z,101007.67
2023-05-21T08:29:11.209Z,101009.11
2023-05-21T08:31:42.428Z,101012.08
2023-05-21T08:34:13.576Z,101013.63
2023-05-21T08:36:53.922Z,101009.42
2023-05-21T08:39:45.013Z,101009.52
2023-05-21T08:42:35.610Z,101009.02
2023-05-21T08:45:12.629Z,101008.92
2023-05-21T08:47:44.862Z,101009.83
2023-05-21T08:50:25.125Z,101008.61
2023-05-21T08:52:59.137Z,101009.55
2023-05-21T08:55:30.540Z,101011.90
2023-05-21T08:58:05.839Z,101009.57
2023-05-21T09:00:37.416Z,101013.64
2023-05-21T09:03:11.565Z,101017.89
2023-05-21T09:05:45.342Z,101010.34
2023-05-21T09:08:22.926Z,101009.09
2023-05-21T09:11:04.869Z,101010.27
2023-05-21T09:13:41.712Z,101012.41
2023-05-21T09:16:17.663Z,101003.97
2023-05-21T09:18:50.280Z,100995.85
2023-05-21T09:21:28.906Z,101002.86
2023-05-21T09:24:03.793Z,101007.45
2023-05-21T09:26:35.633Z,101005.49
2023-05-21T09:29:08.615Z,100998.50
2023-05-21T09:31:44.672Z,101011.15
2023-05-21T09:34:16.724Z,101003.58
2023-05-21T09:36:52.217Z,100997.44
2023-05-21T09:39:31.964Z,100991.13
2023-05-21T09:42:05.554Z,100987.64
2023-05-21T09:44:40.425Z,100987.30
2023-05-21T09:47:12.943Z,100987.33
2023-05-21T09:49:47.165Z,100989.91
2023-05-21T09:52:28.374Z,100984.70
2023-05-21T09:54:59.450Z,100988.70
2023-05-21T09:57:30.530Z,100987.25
2023-05-21T10:00:01.914Z,100987.64
2023-05-21T10:02:38.971Z,100987.20
2023-05-21T10:05:12.178Z,100982.27
2023-05-21T10:07:45.981Z,100982.85
2023-05-21T10:10:17.894Z,100979.75
2023-05-21T10:12:51.510Z,100986.13
2023-05-21T10:15:25.973Z,100982.86
2023-05-21T10:17:58.945Z,100978.18
2023-05-21T10:20:30.947Z,100971.81
2023-05-21T10:23:03.172Z,100968.77
2023-05-21T10:25:36.110Z,100968.10
2023-05-21T10:28:08.229Z,100970.92
2023-05-21T10:30:40.199Z,100968.50
2023-05-21T10:33:11.610Z,100982.13
2023-05-21T10:35:43.936Z,100978.11
2023-05-21T10:38:19.389Z,100967.96
2023-05-21T10:40:51.296Z,100961.39
2023-05-21T10:43:39.796Z,100956.95
2023-05-21T10:46:39.442Z,100957.23
2023-05-21T10:49:40.381Z,100954.34
2023-05-21T10:52:24.195Z,100958.12
2023-05-21T10:55:07.617Z,100955.92
2023-05-21T10:57:59.588Z,100955.45
2023-05-21T11:00:32.333Z,100952.27
2023-05-21T11:03:04.818Z,100949.77
2023-05-21T11:05:43.347Z,100951.43
2023-05-21T11:08:26.714Z,100943.52
2023-05-21T11:10:59.188Z,100950.84
2023-05-21T11:13:45.667Z,100940.39
2023-05-21T11:16:22.622Z,100937.76
2023-05-21T11:19:04.022Z,100937.80
2023-05-21T11:21:37.562Z,100933.13
2023-05-21T11:24:19.621Z,100935.72
2023-05-21T11:27:07.197Z,100931.45
2023-05-21T11:29:47.447Z,100927.86
2023-05-21T11:32:20.746Z,100925.61
2023-05-21T11:34:51.989Z,100926.49
2023-05-21T11:37:31.542Z,100934.86
2023-05-21T11:40:19.940Z,100932.55
2023-05-21T11:42:54.670Z,100923.59
2023-05-21T11:45:24.890Z,100916.43
2023-05-21T11:47:56.439Z,100925.45
2023-05-21T11:50:30.728Z,100927.34
2023-05-21T11:53:02.434Z,100931.75
2023-05-21T11:55:33.499Z,100922.62
2023-05-21T11:58:05.016Z,100921.27
2023-05-21T12:00:41.609Z,100919.30
2023-05-21T12:03:16.682Z,100919.13
2023-05-21T12:05:52.589Z,100918.52
2023-05-21T12:08:27.795Z,100918.30
2023-05-21T12:11:01.939Z,100923.23
2023-05-21T12:13:33.134Z,100918.15
2023-05-21T12:16:07.135Z,100915.61
2023-05-21T12:18:39.977Z,100916.28
2023-05-21T12:21:12.684Z,100913.63
2023-05-21T12:23:44.389Z,100912.75
2023-05-21T12:26:15.603Z,100906.69
2023-05-21T12:28:47.112Z,100914.42
2023-05-21T12:31:19.373Z,100909.13
2023-05-21T12:33:52.436Z,100910.34
2023-05-21T12:36:29.737Z,100907.58
2023-05-21T12:39:00.973Z,100908.88
2023-05-21T12:41:32.658Z,100903.64
2023-05-21T12:44:05.819Z,100899.14
2023-05-21T12:46:37.201Z,100894.20
2023-05-21T12:49:09.012Z,100891.84
2023-05-21T12:51:42.932Z,100892.41
2023-05-21T12:54:17.036Z,100889.69
2023-05-21T12:56:48.384Z,100886.59
2023-05-21T12:59:19.364Z,100893.35
2023-05-21T13:01:53.257Z,100887.55
2023-05-21T13:04:25.313Z,100888.44
2023-05-21T13:06:56.439Z,100887.81
2023-05-21T13:09:27.494Z,100889.65
2023-05-21T13:11:58.526Z,100891.05
2023-05-21T13:14:29.562Z,100890.91
2023-05-21T13:17:00.713Z,100879.33
2023-05-21T13:19:31.885Z,100878.11
2023-05-21T13:22:03.190Z,100882.69
2023-05-21T13:24:34.244Z,100890.40
2023-05-21T13:27:05.334Z,100885.67
2023-05-21T13:29:38.289Z,100879.95
2023-05-21T13:32:10.071Z,100873.89
2023-05-21T13:34:43.432Z,100873.92
2023-05-21T13:37:14.551Z,100871.41
2023-05-21T13:39:45.757Z,100868.57
2023-05-21T13:42:17.127Z,100880.12
2023-05-21T13:44:49.179Z,100878.37
2023-05-21T13:47:20.447Z,100873.01
2023-05-21T13:49:51.603Z,100870.98
2023-05-21T13:52:22.814Z,100872.79
2023-05-21T13:54:53.926Z,100867.96
2023-05-21T13:57:26.934Z,100871.57
2023-05-21T13:59:57.974Z,100867.45
2023-05-21T14:02:29.410Z,100875.83
2023-05-21T14:05:00.789Z,100869.58
2023-05-21T14:07:32.605Z,100872.10
2023-05-21T14:10:04.167Z,100875.52
2023-05-21T14:12:35.321Z,100868.86
2023-05-21T14:15:07.782Z,100865.46
2023-05-21T14:17:40.386Z,100869.98
2023-05-21T14:20:13.500Z,100867.70
2023-05-21T14:22:44.502Z,100863.30
2023-05-21T14:25:15.640Z,100863.19
2023-05-21T14:27:46.737Z,100861.66
2023-05-21T14:30:17.895Z,100859.70
2023-05-21T14:32:48.941Z,100861.77
2023-05-21T14:35:20.344Z,100854.92
2023-05-21T14:37:51.570Z,100861.92
2023-05-21T14:40:22.670Z,100853.70
2023-05-21T14:42:54.452Z,100844.90
2023-05-21T14:45:25.420Z,100845.23
2023-05-21T14:47:56.459Z,100842.20
2023-05-21T14:50:27.467Z,100844.88
2023-05-21T14:52:58.459Z,100847.08
2023-05-21T14:55:30.976Z,100841.06
2023-05-21T14:58:02.056Z,100842.60
2023-05-21T15:00:33.494Z,100838.81
2023-05-21T15:03:05.380Z,100841.47
2023-05-21T15:05:36.728Z,100835.87
2023-05-21T15:08:09.755Z,100834.77
2023-05-21T15:10:41.411Z,100831.72
2023-05-21T15:13:12.402Z,100825.21
2023-05-21T15:15:43.485Z,100828.14
2023-05-21T15:18:14.854Z,100826.45
2023-05-21T15:20:46.038Z,100824.13
2023-05-21T15:23:18.134Z,100827.61
2023-05-21T15:25:49.217Z,100833.70
2023-05-21T15:28:20.305Z,100831.79
2023-05-21T15:30:51.388Z,100834.08
2023-05-21T15:33:22.458Z,100828.14
2023-05-21T15:35:55.786Z,100838.52
2023-05-21T15:38:26.956Z,100826.20
2023-05-21T15:40:58.592Z,100821.73
2023-05-21T15:43:29.688Z,100826.84
2023-05-21T15:46:01.000Z,100824.10
2023-05-21T15:48:32.032Z,100832.98
2023-05-21T15:51:03.133Z,100825.36
2023-05-21T15:53:34.170Z,100821.33
2023-05-21T15:56:05.353Z,100820.05
2023-05-21T15:58:36.284Z,100818.73
2023-05-21T16:01:08.107Z,100815.95
2023-05-21T16:03:40.027Z,100818.20
2023-05-21T16:06:11.582Z,100824.60
2023-05-21T16:08:42.667Z,100831.67
2023-05-21T16:11:13.682Z,100820.71
2023-05-21T16:13:44.679Z,100819.13
2023-05-21T16:16:15.795Z,100819.76
2023-05-21T16:18:46.830Z,100820.89
2023-05-21T16:21:17.913Z,100819.71
2023-05-21T16:23:48.919Z,100822.63
2023-05-21T16:26:20.084Z,100817.86
2023-05-21T16:28:51.286Z,100816.98
2023-05-21T16:31:22.863Z,100813.11
2023-05-21T16:33:53.865Z,100812.58
2023-05-21T16:36:24.895Z,100817.20
2023-05-21T16:38:58.197Z,100813.52
2023-05-21T16:41:29.230Z,100812.76
2023-05-21T16:44:00.243Z,100812.89
2023-05-21T16:46:31.413Z,100813.09
2023-05-21T16:49:02.907Z,100814.29
2023-05-21T16:51:34.078Z,100813.25
2023-05-21T16:54:06.537Z,100820.91
2023-05-21T16:56:37.565Z,100822.33
2023-05-21T16:59:08.564Z,100814.13
2023-05-21T17:01:39.795Z,100815.39
2023-05-21T17:04:11.073Z,100813.10
2023-05-21T17:06:43.085Z,100816.42
2023-05-21T17:09:19.791Z,100821.29
2023-05-21T17:11:50.940Z,100817.11
2023-05-21T17:14:33.112Z,100817.42
2023-05-21T17:17:05.826Z,100818.80
2023-05-21T17:19:37.526Z,100818.66
2023-05-21T17:22:08.841Z,100817.95
2023-05-21T17:24:39.919Z,100813.99
2023-05-21T17:27:15.105Z,100816.84
2023-05-21T17:29:48.078Z,100815.83
2023-05-21T17:32:21.016Z,100816.55
2023-05-21T17:34:53.161Z,100819.75
2023-05-21T17:37:24.562Z,100816.49
2023-05-21T17:39:57.809Z,100818.66
2023-05-21T17:42:28.962Z,100816.87
2023-05-21T17:45:00.216Z,100814.67
2023-05-21T17:47:33.142Z,100817.55
2023-05-21T17:50:04.367Z,100817.91
2023-05-21T17:52:35.426Z,100813.21
2023-05-21T17:55:08.031Z,100806.91
2023-05-21T17:57:39.278Z,100805.90
2023-05-21T18:00:12.402Z,100801.71
2023-05-21T18:02:43.441Z,100801.61
2023-05-21T18:05:14.631Z,100802.35
2023-05-21T18:07:45.723Z,100797.87
2023-05-21T18:10:17.022Z,100804.13
2023-05-21T18:12:48.081Z,100802.06
2023-05-21T18:15:19.619Z,100804.16
2023-05-21T18:17:56.202Z,100804.33
2023-05-21T18:20:27.966Z,100801.91
2023-05-21T18:22:59.248Z,100803.16
2023-05-21T18:25:30.413Z,100804.36
2023-05-21T18:28:01.555Z,100808.93
2023-05-21T18:30:32.872Z,100806.38
2023-05-21T18:33:04.124Z,100813.52
2023-05-21T18:35:35.555Z,100813.73
2023-05-21T18:38:10.082Z,100815.07
2023-05-21T18:40:50.952Z,100814.29
2023-05-21T18:43:22.131Z,100816.63
2023-05-21T18:45:53.247Z,100821.99
2023-05-21T18:48:29.065Z,100822.36
2023-05-21T18:51:00.198Z,100818.75
2023-05-21T18:53:31.370Z,100822.48
2023-05-21T18:56:08.410Z,100820.27
2023-05-21T18:59:10.312Z,100819.58
2023-05-21T19:01:41.347Z,100825.31
2023-05-21T19:05:50.972Z,100827.05
2023-05-21T19:08:36.544Z,100831.11
2023-05-21T19:11:37.939Z,100828.23
2023-05-21T19:14:11.362Z,100830.02
2023-05-21T19:16:43.368Z,100827.03
2023-05-21T19:19:15.406Z,100827.00
2023-05-21T19:21:46.511Z,100829.18
2023-05-21T19:24:18.072Z,100829.84
2023-05-21T19:26:54.701Z,100831.72
2023-05-21T19:29:31.676Z,100829.84
2023-05-21T19:32:04.410Z,100832.54
2023-05-21T19:34:35.770Z,100838.42
2023-05-21T19:37:07.239Z,100839.94
2023-05-21T19:39:44.667Z,100841.60
2023-05-21T19:46:41.581Z,100842.99
2023-05-21T19:49:14.221Z,100842.09
2023-05-21T19:51:46.506Z,100845.34
2023-05-21T19:54:18.947Z,100841.63
2023-05-21T19:56:50.888Z,100841.05
2023-05-21T19:59:21.998Z,100835.79
2023-05-21T20:01:53.446Z,100839.29
2023-05-21T20:04:24.951Z,100832.59
2023-05-21T20:06:56.320Z,100834.60
2023-05-21T20:09:27.391Z,100833.14
2023-05-21T20:11:58.504Z,100836.16
2023-05-21T20:14:29.624Z,100833.81
2023-05-21T20:17:00.845Z,100831.65
2023-05-21T20:19:32.711Z,100829.65
2023-05-21T20:22:04.148Z,100831.79
2023-05-21T20:24:35.240Z,100832.87
2023-05-21T20:27:07.027Z,100830.85
2023-05-21T20:29:38.128Z,100832.81
2023-05-21T20:32:10.130Z,100832.13
2023-05-21T20:34:54.448Z,100831.83
2023-05-21T20:37:34.019Z,100834.35
2023-05-21T20:40:09.285Z,100838.38
2023-05-21T20:42:41.852Z,100836.15
2023-05-21T20:45:16.093Z,100839.09
2023-05-21T20:47:50.175Z,100839.58
2023-05-21T20:50:26.007Z,100840.94
2023-05-21T20:52:58.230Z,100841.77
2023-05-21T20:55:35.114Z,100839.99
2023-05-21T20:58:06.873Z,100841.06
2023-05-21T21:00:45.172Z,100837.29
2023-05-21T21:03:18.079Z,100835.95
2023-05-21T21:05:53.043Z,100837.52
2023-05-21T21:08:24.516Z,100833.73
2023-05-21T21:10:56.172Z,100832.34
2023-05-21T21:13:27.415Z,100832.69
2023-05-21T21:16:01.368Z,100826.11
2023-05-21T21:18:32.766Z,100827.84
2023-05-21T21:21:04.222Z,100825.42
2023-05-21T21:23:35.657Z,100822.59
2023-05-21T21:26:09.898Z,100820.35
2023-05-21T21:28:45.389Z,100818.61
2023-05-21T21:31:18.872Z,100818.42
2023-05-21T21:33:50.304Z,100814.25
2023-05-21T21:36:23.801Z,100816.30
2023-05-21T21:38:55.781Z,100817.69
2023-05-21T21:41:27.126Z,100816.98
2023-05-21T21:43:58.499Z,100817.14
2023-05-21T21:46:30.229Z,100811.61
2023-05-21T21:49:01.719Z,100813.99
2023-05-21T21:51:32.999Z,100816.37
2023-05-21T21:54:04.228Z,100816.16
2023-05-21T21:56:35.580Z,100816.98
2023-05-21T21:59:07.028Z,100818.48
2023-05-21T22:01:38.600Z,100816.02
2023-05-21T22:04:11.475Z,100820.94
2023-05-21T22:06:45.481Z,100823.45
2023-05-21T22:09:17.748Z,100819.77
2023-05-21T22:11:48.886Z,100820.20
2023-05-21T22:14:20.030Z,100817.36
2023-05-21T22:16:53.248Z,100817.44
2023-05-21T22:19:24.624Z,100817.20
2023-05-21T22:21:55.913Z,100817.79
2023-05-21T22:24:32.893Z,100818.39
2023-05-21T22:27:04.828Z,100821.77
2023-05-21T22:29:35.908Z,100822.54
2023-05-21T22:32:07.547Z,100822.30
2023-05-21T22:34:38.560Z,100818.91
2023-05-21T22:37:09.902Z,100821.58
2023-05-21T22:39:41.064Z,100824.92
2023-05-21T22:42:12.651Z,100821.73
2023-05-21T22:44:43.874Z,100826.28
2023-05-21T22:47:15.245Z,100826.71
2023-05-21T22:49:46.386Z,100828.70
2023-05-21T22:52:18.004Z,100828.27
2023-05-21T22:54:49.563Z,100829.91
2023-05-21T22:57:21.184Z,100827.58
2023-05-21T22:59:52.215Z,100827.30
2023-05-21T23:02:23.526Z,100827.21
2023-05-21T23:04:55.016Z,100823.86
2023-05-21T23:07:26.208Z,100822.25
2023-05-21T23:09:57.412Z,100821.30
2023-05-21T23:12:28.704Z,100820.34
2023-05-21T23:15:00.005Z,100818.54
2023-05-21T23:17:31.293Z,100817.75
2023-05-21T23:20:02.547Z,100816.13
2023-05-21T23:22:34.160Z,100818.59
2023-05-21T23:25:05.445Z,100816.24
2023-05-21T23:27:36.627Z,100818.38
2023-05-21T23:30:09.415Z,100819.67
2023-05-21T23:32:40.652Z,100818.38
2023-05-21T23:35:14.667Z,100816.71
2023-05-21T23:37:45.726Z,100815.26
2023-05-21T23:40:17.411Z,100815.66
2023-05-21T23:42:48.605Z,100813.70
2023-05-21T23:45:19.861Z,100811.02
2023-05-21T23:47:51.064Z,100810.75
2023-05-21T23:50:22.412Z,100813.90
2023-05-21T23:52:53.688Z,100815.02
2023-05-21T23:55:24.751Z,100814.89
2023-05-21T23:57:55.926Z,100813.91
